createdAt,value
2018-12-27T00:02:02.964Z,102354.47
2018-12-27T00:04:34.268Z,102351.00
2018-12-27T00:07:05.551Z,102349.61
2018-12-27T00:09:36.827Z,102353.56
2018-12-27T00:12:08.143Z,102350.44
2018-12-27T00:14:40.304Z,102351.78
2018-12-27T00:17:11.594Z,102351.30
2018-12-27T00:19:42.851Z,102350.44
2018-12-27T00:22:14.131Z,102344.84
2018-12-27T00:24:45.375Z,102339.59
2018-12-27T00:27:16.685Z,102335.73
2018-12-27T00:29:47.910Z,102335.48
2018-12-27T00:32:19.316Z,102340.67
2018-12-27T00:34:50.765Z,102333.69
2018-12-27T00:37:22.243Z,102330.88
2018-12-27T00:39:53.719Z,102325.58
2018-12-27T00:42:25.177Z,102335.08
2018-12-27T00:44:56.615Z,102326.92
2018-12-27T00:47:28.042Z,102325.06
2018-12-27T00:49:59.529Z,102326.80
2018-12-27T00:52:31.094Z,102325.66
2018-12-27T00:55:02.554Z,102324.76
2018-12-27T00:57:33.954Z,102320.81
2018-12-27T01:00:05.506Z,102318.64
2018-12-27T01:02:36.910Z,102318.13
2018-12-27T01:05:08.414Z,102316.30
2018-12-27T01:07:39.855Z,102312.83
2018-12-27T01:10:11.330Z,102315.87
2018-12-27T01:12:42.835Z,102315.43
2018-12-27T01:15:14.336Z,102311.53
2018-12-27T01:17:45.827Z,102312.88
2018-12-27T01:20:17.282Z,102309.36
2018-12-27T01:22:48.726Z,102315.52
2018-12-27T01:25:20.191Z,102318.69
2018-12-27T01:27:52.083Z,102313.83
2018-12-27T01:30:23.493Z,102308.83
2018-12-27T01:32:55.009Z,102311.08
2018-12-27T01:35:26.447Z,102310.52
2018-12-27T01:37:58.003Z,102312.69
2018-12-27T01:40:29.436Z,102312.21
2018-12-27T01:43:00.922Z,102308.19
2018-12-27T01:45:32.390Z,102306.37
2018-12-27T01:48:03.969Z,102304.16
2018-12-27T01:50:35.452Z,102301.04
2018-12-27T01:53:06.988Z,102298.00
2018-12-27T01:55:38.563Z,102298.00
2018-12-27T01:58:10.065Z,102297.48
2018-12-27T02:00:41.731Z,102287.89
2018-12-27T02:03:13.261Z,102293.19
2018-12-27T02:05:44.762Z,102290.98
2018-12-27T02:08:16.180Z,102295.05
2018-12-27T02:10:47.684Z,102286.29
2018-12-27T02:13:19.080Z,102294.88
2018-12-27T02:15:50.542Z,102284.47
2018-12-27T02:18:21.941Z,102290.02
2018-12-27T02:20:53.469Z,102287.51
2018-12-27T02:23:24.869Z,102280.41
2018-12-27T02:25:59.109Z,102279.45
2018-12-27T02:28:30.562Z,102279.88
2018-12-27T02:31:02.027Z,102282.44
2018-12-27T02:33:35.444Z,102288.02
2018-12-27T02:36:06.628Z,102290.19
2018-12-27T02:38:38.069Z,102280.27
2018-12-27T02:41:09.519Z,102285.38
2018-12-27T02:43:40.912Z,102283.56
2018-12-27T02:46:12.459Z,102278.83
2018-12-27T02:48:43.963Z,102273.16
2018-12-27T02:51:17.118Z,102272.85
2018-12-27T02:53:48.560Z,102273.72
2018-12-27T02:56:20.008Z,102261.02
2018-12-27T02:58:51.476Z,102260.45
2018-12-27T03:01:22.919Z,102260.80
2018-12-27T03:03:54.386Z,102260.27
2018-12-27T03:06:25.812Z,102259.27
2018-12-27T03:08:57.253Z,102253.91
2018-12-27T03:11:28.679Z,102256.27
2018-12-27T03:14:00.151Z,102248.72
2018-12-27T03:16:31.640Z,102248.61
2018-12-27T03:19:03.131Z,102246.20
2018-12-27T03:21:34.642Z,102245.52
2018-12-27T03:24:06.175Z,102233.17
2018-12-27T03:26:37.731Z,102230.80
2018-12-27T03:29:09.173Z,102232.81
2018-12-27T03:31:40.758Z,102235.25
2018-12-27T03:34:12.226Z,102236.97
2018-12-27T03:36:43.873Z,102230.59
2018-12-27T03:39:15.338Z,102233.50
2018-12-27T03:41:46.892Z,102228.39
2018-12-27T03:44:18.364Z,102230.32
2018-12-27T03:46:49.831Z,102222.78
2018-12-27T03:49:21.178Z,102220.88
2018-12-27T03:51:52.612Z,102221.23
2018-12-27T03:54:24.091Z,102213.03
2018-12-27T03:56:55.563Z,102218.42
2018-12-27T03:59:27.014Z,102210.20
2018-12-27T04:01:58.505Z,102207.91
2018-12-27T04:04:29.934Z,102211.23
2018-12-27T04:07:01.414Z,102210.34
2018-12-27T04:09:32.922Z,102208.16
2018-12-27T04:12:04.416Z,102198.98
2018-12-27T04:14:35.925Z,102196.76
2018-12-27T04:17:07.471Z,102195.02
2018-12-27T04:19:38.802Z,102197.91
2018-12-27T04:22:10.209Z,102191.86
2018-12-27T04:24:42.699Z,102190.94
2018-12-27T04:27:14.016Z,102187.55
2018-12-27T04:29:45.164Z,102192.66
2018-12-27T04:32:16.544Z,102186.25
2018-12-27T04:34:48.103Z,102186.18
2018-12-27T04:37:19.391Z,102181.94
2018-12-27T04:39:50.705Z,102184.10
2018-12-27T04:42:22.602Z,102182.98
2018-12-27T04:44:53.863Z,102184.59
2018-12-27T04:47:25.116Z,102183.22
2018-12-27T04:49:56.401Z,102182.72
2018-12-27T04:52:27.650Z,102179.16
2018-12-27T04:54:58.867Z,102175.77
2018-12-27T04:57:30.031Z,102178.28
2018-12-27T05:00:01.362Z,102177.43
2018-12-27T05:02:32.611Z,102176.12
2018-12-27T05:05:03.866Z,102180.00
2018-12-27T05:07:35.114Z,102180.00
2018-12-27T05:10:06.803Z,102177.61
2018-12-27T05:12:38.051Z,102173.12
2018-12-27T05:15:09.405Z,102174.02
2018-12-27T05:17:40.737Z,102171.75
2018-12-27T05:20:11.924Z,102169.53
2018-12-27T05:22:43.131Z,102173.72
2018-12-27T05:25:14.264Z,102179.31
2018-12-27T05:27:45.510Z,102177.09
2018-12-27T05:30:16.778Z,102174.88
2018-12-27T05:32:48.082Z,102178.34
2018-12-27T05:35:19.243Z,102183.02
2018-12-27T05:37:50.506Z,102178.27
2018-12-27T05:40:21.707Z,102175.55
2018-12-27T05:42:54.140Z,102182.45
2018-12-27T05:45:25.474Z,102186.20
2018-12-27T05:47:56.822Z,102185.73
2018-12-27T05:50:27.969Z,102184.73
2018-12-27T05:52:59.255Z,102187.72
2018-12-27T05:55:34.246Z,102188.46
2018-12-27T05:58:03.502Z,102197.45
2018-12-27T06:00:34.873Z,102190.79
2018-12-27T06:03:06.093Z,102194.97
2018-12-27T06:05:37.422Z,102188.41
2018-12-27T06:08:08.631Z,102190.92
2018-12-27T06:10:40.001Z,102194.61
2018-12-27T06:13:11.268Z,102190.08
2018-12-27T06:15:42.504Z,102194.27
2018-12-27T06:18:13.833Z,102197.20
2018-12-27T06:20:45.107Z,102201.52
2018-12-27T06:23:16.265Z,102197.13
2018-12-27T06:25:47.543Z,102191.58
2018-12-27T06:28:18.829Z,102199.87
2018-12-27T06:30:50.143Z,102199.03
2018-12-27T06:33:21.390Z,102201.20
2018-12-27T06:35:52.646Z,102195.81
2018-12-27T06:38:24.033Z,102199.56
2018-12-27T06:40:55.302Z,102201.94
2018-12-27T06:43:26.594Z,102198.14
2018-12-27T06:45:57.871Z,102201.03
2018-12-27T06:48:29.134Z,102204.05
2018-12-27T06:51:00.390Z,102200.38
2018-12-27T06:53:31.710Z,102199.40
2018-12-27T06:56:03.100Z,102200.56
2018-12-27T06:58:37.858Z,102197.23
2018-12-27T07:01:07.453Z,102195.36
2018-12-27T07:03:38.748Z,102203.50
2018-12-27T07:06:10.074Z,102196.45
2018-12-27T07:08:41.388Z,102198.48
2018-12-27T07:11:12.725Z,102195.52
2018-12-27T07:13:44.024Z,102193.44
2018-12-27T07:16:15.490Z,102199.11
2018-12-27T07:18:46.725Z,102197.84
2018-12-27T07:21:17.969Z,102195.23
2018-12-27T07:23:49.278Z,102199.91
2018-12-27T07:26:20.545Z,102203.80
2018-12-27T07:28:51.832Z,102202.52
2018-12-27T07:31:23.050Z,102193.59
2018-12-27T07:33:54.321Z,102199.56
2018-12-27T07:36:25.507Z,102200.19
2018-12-27T07:38:56.787Z,102197.81
2018-12-27T07:41:28.050Z,102199.23
2018-12-27T07:43:59.238Z,102197.20
2018-12-27T07:46:30.531Z,102206.27
2018-12-27T07:49:01.804Z,102208.50
2018-12-27T07:51:33.068Z,102199.24
2018-12-27T07:54:07.258Z,102200.63
2018-12-27T07:56:38.563Z,102199.45
2018-12-27T07:59:09.708Z,102200.25
2018-12-27T08:01:40.821Z,102203.95
2018-12-27T08:04:12.131Z,102196.37
2018-12-27T08:06:43.413Z,102196.19
2018-12-27T08:09:14.577Z,102194.52
2018-12-27T08:11:45.832Z,102194.56
2018-12-27T08:14:17.119Z,102192.22
2018-12-27T08:16:48.421Z,102194.00
2018-12-27T08:19:19.817Z,102191.14
2018-12-27T08:21:51.051Z,102186.57
2018-12-27T08:24:22.356Z,102188.09
2018-12-27T08:26:53.521Z,102189.44
2018-12-27T08:29:24.812Z,102186.95
2018-12-27T08:31:56.047Z,102186.23
2018-12-27T08:34:27.314Z,102184.19
2018-12-27T08:36:58.594Z,102174.98
2018-12-27T08:39:29.918Z,102166.53
2018-12-27T08:42:01.229Z,102166.97
2018-12-27T08:44:32.436Z,102165.77
2018-12-27T08:47:03.739Z,102160.66
2018-12-27T08:49:34.987Z,102153.96
2018-12-27T08:52:06.289Z,102151.41
2018-12-27T08:54:37.556Z,102153.20
2018-12-27T08:57:08.848Z,102155.05
2018-12-27T08:59:40.108Z,102158.22
2018-12-27T09:02:11.388Z,102153.97
2018-12-27T09:04:42.647Z,102151.06
2018-12-27T09:07:13.913Z,102153.83
2018-12-27T09:10:04.198Z,102147.96
2018-12-27T09:12:36.200Z,102148.98
2018-12-27T09:15:07.679Z,102149.14
2018-12-27T09:17:38.938Z,102146.69
2018-12-27T09:20:11.158Z,102149.47
2018-12-27T09:22:42.438Z,102146.60
2018-12-27T09:25:13.687Z,102142.92
2018-12-27T09:27:44.934Z,102131.95
2018-12-27T09:30:16.181Z,102141.22
2018-12-27T09:32:47.379Z,102139.23
2018-12-27T09:35:18.635Z,102149.92
2018-12-27T09:37:49.917Z,102152.65
2018-12-27T09:40:21.175Z,102157.56
2018-12-27T09:42:52.427Z,102156.84
2018-12-27T09:45:23.662Z,102158.73
2018-12-27T09:47:55.063Z,102152.79
2018-12-27T09:50:26.294Z,102152.01
2018-12-27T09:52:58.298Z,102149.91
2018-12-27T09:55:29.561Z,102143.45
2018-12-27T09:58:00.844Z,102145.63
2018-12-27T10:00:31.989Z,102141.67
2018-12-27T10:03:03.171Z,102141.27
2018-12-27T10:05:34.424Z,102134.29
2018-12-27T10:08:05.738Z,102129.06
2018-12-27T10:10:36.927Z,102135.59
2018-12-27T10:13:08.188Z,102131.70
2018-12-27T10:15:39.461Z,102129.11
2018-12-27T10:18:10.708Z,102125.22
2018-12-27T10:20:42.198Z,102124.36
2018-12-27T10:23:13.463Z,102128.67
2018-12-27T10:25:44.780Z,102123.03
2018-12-27T10:28:16.002Z,102125.22
2018-12-27T10:30:47.279Z,102120.44
2018-12-27T10:33:18.587Z,102114.80
2018-12-27T10:35:49.900Z,102118.33
2018-12-27T10:38:21.195Z,102115.71
2018-12-27T10:40:52.471Z,102112.25
2018-12-27T10:43:26.964Z,102116.17
2018-12-27T10:45:58.226Z,102114.44
2018-12-27T10:48:29.520Z,102111.87
2018-12-27T10:51:00.769Z,102111.43
2018-12-27T10:53:32.041Z,102111.86
2018-12-27T10:56:03.271Z,102103.58
2018-12-27T10:58:34.576Z,102107.94
2018-12-27T11:01:05.942Z,102100.55
2018-12-27T11:03:37.257Z,102097.03
2018-12-27T11:06:08.406Z,102087.84
2018-12-27T11:08:39.687Z,102078.22
2018-12-27T11:11:10.946Z,102069.86
2018-12-27T11:13:42.222Z,102073.30
2018-12-27T11:16:13.479Z,102069.75
2018-12-27T11:18:44.672Z,102066.24
2018-12-27T11:21:15.918Z,102069.69
2018-12-27T11:23:47.069Z,102060.97
2018-12-27T11:26:18.466Z,102063.84
2018-12-27T11:28:49.800Z,102058.94
2018-12-27T11:31:21.045Z,102042.69
2018-12-27T11:33:52.274Z,102040.98
2018-12-27T11:36:23.487Z,102037.59
2018-12-27T11:38:54.706Z,102028.91
2018-12-27T11:41:26.046Z,102023.28
2018-12-27T11:43:57.267Z,102022.39
2018-12-27T11:46:28.529Z,102019.84
2018-12-27T11:48:59.741Z,102016.38
2018-12-27T11:51:30.981Z,102013.39
2018-12-27T11:54:02.169Z,102025.11
2018-12-27T11:56:33.314Z,102030.33
2018-12-27T11:59:04.485Z,102025.98
2018-12-27T12:01:35.780Z,102030.33
2018-12-27T12:04:07.038Z,102019.91
2018-12-27T12:06:38.286Z,102015.09
2018-12-27T12:09:09.919Z,102015.06
2018-12-27T12:11:41.135Z,102016.34
2018-12-27T12:14:12.422Z,102012.79
2018-12-27T12:16:43.570Z,102013.27
2018-12-27T12:19:14.867Z,102004.84
2018-12-27T12:21:46.023Z,102001.34
2018-12-27T12:24:17.313Z,102003.49
2018-12-27T12:26:48.500Z,102007.84
2018-12-27T12:29:19.754Z,101998.97
2018-12-27T12:31:51.048Z,101996.58
2018-12-27T12:34:22.346Z,101999.25
2018-12-27T12:36:54.705Z,101996.58
2018-12-27T12:39:26.049Z,102001.42
2018-12-27T12:41:57.410Z,102001.42
2018-12-27T12:44:28.667Z,102004.08
2018-12-27T12:46:59.933Z,101999.69
2018-12-27T12:49:31.124Z,102001.53
2018-12-27T12:52:02.320Z,102003.25
2018-12-27T12:54:33.542Z,102001.16
2018-12-27T12:57:05.124Z,102003.84
2018-12-27T12:59:36.402Z,102004.22
2018-12-27T13:02:07.704Z,102004.70
2018-12-27T13:04:39.012Z,101998.12
2018-12-27T13:07:10.297Z,102006.47
2018-12-27T13:09:41.438Z,102010.88
2018-12-27T13:12:12.639Z,102003.05
2018-12-27T13:14:43.811Z,102006.95
2018-12-27T13:17:14.970Z,102007.81
2018-12-27T13:19:46.235Z,102005.63
2018-12-27T13:22:17.521Z,102007.36
2018-12-27T13:24:48.805Z,102010.08
2018-12-27T13:27:20.063Z,102013.18
2018-12-27T13:29:51.238Z,102016.28
2018-12-27T13:32:22.407Z,102005.34
2018-12-27T13:34:53.598Z,102004.50
2018-12-27T13:37:24.847Z,102005.79
2018-12-27T13:39:56.131Z,102004.92
2018-12-27T13:42:27.389Z,102009.25
2018-12-27T13:44:58.655Z,102010.17
2018-12-27T13:47:29.898Z,102014.63
2018-12-27T13:50:01.156Z,102008.48
2018-12-27T13:52:32.437Z,102003.70
2018-12-27T13:55:03.692Z,102007.16
2018-12-27T13:57:35.017Z,102010.27
2018-12-27T14:00:07.079Z,102005.53
2018-12-27T14:02:38.238Z,102011.19
2018-12-27T14:05:09.847Z,102008.15
2018-12-27T14:07:41.106Z,102014.72
2018-12-27T14:10:12.387Z,102015.19
2018-12-27T14:12:43.608Z,102013.05
2018-12-27T14:15:14.887Z,102014.34
2018-12-27T14:17:46.180Z,102020.02
2018-12-27T14:20:17.461Z,102020.92
2018-12-27T14:22:48.835Z,102014.78
2018-12-27T14:25:20.086Z,102004.32
2018-12-27T14:27:51.394Z,102019.98
2018-12-27T14:30:22.622Z,102018.33
2018-12-27T14:32:53.893Z,102011.79
2018-12-27T14:35:25.114Z,102013.16
2018-12-27T14:37:56.396Z,102018.45
2018-12-27T14:40:27.679Z,102016.27
2018-12-27T14:42:59.111Z,102016.76
2018-12-27T14:45:30.339Z,102008.08
2018-12-27T14:48:01.579Z,102014.20
2018-12-27T14:50:32.850Z,102018.14
2018-12-27T14:53:04.099Z,102017.70
2018-12-27T14:55:35.376Z,102021.20
2018-12-27T14:58:06.649Z,102016.82
2018-12-27T15:00:37.890Z,102017.67
2018-12-27T15:03:09.243Z,102014.58
2018-12-27T15:05:40.458Z,102018.48
2018-12-27T15:08:11.758Z,102016.67
2018-12-27T15:10:43.041Z,102017.95
2018-12-27T15:13:14.291Z,102023.56
2018-12-27T15:15:45.652Z,102022.65
2018-12-27T15:18:16.893Z,102025.62
2018-12-27T15:20:48.166Z,102022.52
2018-12-27T15:23:19.427Z,102019.00
2018-12-27T15:25:50.659Z,102021.56
2018-12-27T15:28:21.930Z,102028.48
2018-12-27T15:30:53.164Z,102018.92
2018-12-27T15:33:24.428Z,102018.53
2018-12-27T15:35:55.697Z,102017.70
2018-12-27T15:38:26.897Z,102010.30
2018-12-27T15:40:58.143Z,102017.71
2018-12-27T15:43:29.508Z,102007.72
2018-12-27T15:46:00.739Z,102010.30
2018-12-27T15:48:32.258Z,102006.41
2018-12-27T15:51:03.458Z,102008.16
2018-12-27T15:53:34.649Z,102006.37
2018-12-27T15:56:05.816Z,102006.78
2018-12-27T15:58:37.101Z,102003.73
2018-12-27T16:01:08.356Z,102000.25
2018-12-27T16:03:39.631Z,102008.11
2018-12-27T16:06:10.928Z,102008.55
2018-12-27T16:08:42.189Z,102005.52
2018-12-27T16:11:13.439Z,102002.49
2018-12-27T16:13:44.677Z,102004.27
2018-12-27T16:16:16.001Z,101998.60
2018-12-27T16:18:47.254Z,102003.81
2018-12-27T16:21:18.495Z,102000.79
2018-12-27T16:23:49.760Z,101994.72
2018-12-27T16:26:21.059Z,102001.67
2018-12-27T16:28:52.214Z,101996.45
2018-12-27T16:31:23.557Z,101999.94
2018-12-27T16:33:54.830Z,101998.20
2018-12-27T16:36:26.136Z,102005.58
2018-12-27T16:38:57.409Z,102006.45
2018-12-27T16:41:28.598Z,102009.92
2018-12-27T16:43:59.762Z,102010.35
2018-12-27T16:46:31.010Z,102013.81
2018-12-27T16:49:02.302Z,102009.44
2018-12-27T16:51:33.601Z,102005.05
2018-12-27T16:54:04.871Z,102005.88
2018-12-27T16:56:36.094Z,102003.30
2018-12-27T16:59:07.313Z,102000.30
2018-12-27T17:01:38.545Z,101998.88
2018-12-27T17:04:09.834Z,102001.43
2018-12-27T17:06:41.089Z,101997.47
2018-12-27T17:09:12.393Z,101997.41
2018-12-27T17:11:43.583Z,102000.00
2018-12-27T17:14:14.871Z,102004.25
2018-12-27T17:16:46.094Z,102000.26
2018-12-27T17:19:17.413Z,101998.92
2018-12-27T17:21:48.670Z,101997.64
2018-12-27T17:24:19.953Z,102001.94
2018-12-27T17:26:51.212Z,102003.23
2018-12-27T17:29:22.507Z,101999.28
2018-12-27T17:31:53.812Z,102002.31
2018-12-27T17:34:25.082Z,102004.87
2018-12-27T17:36:56.394Z,102007.86
2018-12-27T17:39:27.725Z,102004.33
2018-12-27T17:41:59.048Z,101999.58
2018-12-27T17:44:30.386Z,102007.35
2018-12-27T17:47:01.632Z,102000.77
2018-12-27T17:49:32.929Z,102002.50
2018-12-27T17:52:04.232Z,102001.20
2018-12-27T17:54:35.517Z,101999.44
2018-12-27T17:57:06.812Z,101996.40
2018-12-27T17:59:37.939Z,102000.36
2018-12-27T18:02:09.204Z,102007.30
2018-12-27T18:04:40.454Z,102002.07
2018-12-27T18:07:11.787Z,102003.34
2018-12-27T18:09:43.070Z,102006.89
2018-12-27T18:12:14.395Z,102006.20
2018-12-27T18:14:45.681Z,102004.55
2018-12-27T18:17:16.977Z,102004.55
2018-12-27T18:19:48.198Z,102003.66
2018-12-27T18:22:19.532Z,102006.33
2018-12-27T18:24:50.883Z,102011.58
2018-12-27T18:27:22.262Z,102011.58
2018-12-27T18:29:53.520Z,102007.67
2018-12-27T18:32:24.816Z,102007.59
2018-12-27T18:34:56.069Z,102008.42
2018-12-27T18:37:27.362Z,102012.34
2018-12-27T18:40:17.684Z,102014.92
2018-12-27T18:42:49.019Z,102019.58
2018-12-27T18:45:20.287Z,102029.36
2018-12-27T18:47:51.637Z,102029.25
2018-12-27T18:50:25.902Z,102029.49
2018-12-27T18:52:57.205Z,102021.94
2018-12-27T18:55:28.452Z,102011.97
2018-12-27T18:57:59.702Z,102016.98
2018-12-27T19:00:30.983Z,102014.66
2018-12-27T19:03:02.214Z,102023.33
2018-12-27T19:05:33.495Z,102020.19
2018-12-27T19:08:04.765Z,102020.89
2018-12-27T19:10:36.074Z,102022.48
2018-12-27T19:13:10.278Z,102028.40
2018-12-27T19:16:02.300Z,102026.55
2018-12-27T19:18:40.814Z,102022.11
2018-12-27T19:21:56.620Z,102022.42
2018-12-27T19:24:27.809Z,102020.66
2018-12-27T19:26:59.126Z,102020.18
2018-12-27T19:29:30.471Z,102015.81
2018-12-27T19:32:01.697Z,102014.47
2018-12-27T19:34:33.123Z,102027.03
2018-12-27T19:37:04.306Z,102020.92
2018-12-27T19:39:35.584Z,102023.44
2018-12-27T19:42:06.857Z,102021.28
2018-12-27T19:44:38.111Z,102024.31
2018-12-27T19:47:09.297Z,102022.97
2018-12-27T19:49:40.556Z,102016.87
2018-12-27T19:52:11.784Z,102021.67
2018-12-27T19:54:43.031Z,102023.52
2018-12-27T19:57:16.538Z,102014.43
2018-12-27T19:59:47.764Z,102015.38
2018-12-27T20:02:19.214Z,102022.78
2018-12-27T20:04:50.490Z,102025.53
2018-12-27T20:07:22.012Z,102024.27
2018-12-27T20:09:53.323Z,102016.23
2018-12-27T20:12:24.724Z,102018.40
2018-12-27T20:14:56.057Z,102020.20
2018-12-27T20:17:27.338Z,102012.48
2018-12-27T20:19:58.662Z,102016.92
2018-12-27T20:22:30.214Z,102017.42
2018-12-27T20:25:01.488Z,102010.52
2018-12-27T20:27:32.760Z,102010.13
2018-12-27T20:30:04.111Z,102005.02
2018-12-27T20:32:35.457Z,102009.45
2018-12-27T20:35:06.974Z,102015.05
2018-12-27T20:37:38.275Z,102007.22
2018-12-27T20:40:10.879Z,102005.48
2018-12-27T20:42:44.619Z,102008.05
2018-12-27T20:45:16.049Z,102005.48
2018-12-27T20:47:47.410Z,102004.62
2018-12-27T20:50:18.770Z,102003.78
2018-12-27T20:52:50.106Z,102009.89
2018-12-27T20:55:21.542Z,102002.95
2018-12-27T20:57:53.295Z,102002.95
2018-12-27T21:00:24.664Z,102002.92
2018-12-27T21:02:55.231Z,102007.31
2018-12-27T21:05:26.642Z,102007.25
2018-12-27T21:08:00.291Z,102008.62
2018-12-27T21:10:33.155Z,102016.98
2018-12-27T21:13:04.452Z,102015.22
2018-12-27T21:15:35.673Z,102015.66
2018-12-27T21:18:07.118Z,102011.31
2018-12-27T21:20:39.582Z,102013.91
2018-12-27T21:23:10.881Z,102018.22
2018-12-27T21:25:42.278Z,102014.72
2018-12-27T21:28:13.585Z,102016.45
2018-12-27T21:30:48.161Z,102014.31
2018-12-27T21:33:19.537Z,102012.59
2018-12-27T21:35:50.839Z,102014.05
2018-12-27T21:38:22.216Z,102016.67
2018-12-27T21:40:56.402Z,102018.01
2018-12-27T21:43:27.716Z,102025.34
2018-12-27T21:45:59.099Z,102020.73
2018-12-27T21:48:30.377Z,102028.59
2018-12-27T21:51:01.691Z,102033.80
2018-12-27T21:53:33.011Z,102040.28
2018-12-27T21:56:04.343Z,102047.19
2018-12-27T21:58:35.666Z,102049.45
2018-12-27T22:01:07.154Z,102050.26
2018-12-27T22:03:38.417Z,102048.05
2018-12-27T22:06:09.907Z,102045.42
2018-12-27T22:08:41.199Z,102044.89
2018-12-27T22:11:12.557Z,102040.94
2018-12-27T22:13:42.874Z,102043.06
2018-12-27T22:16:14.187Z,102043.06
2018-12-27T22:18:46.048Z,102041.27
2018-12-27T22:21:17.410Z,102027.73
2018-12-27T22:23:48.841Z,102035.44
2018-12-27T22:26:20.268Z,102034.50
2018-12-27T22:28:51.676Z,102032.27
2018-12-27T22:31:22.964Z,102025.30
2018-12-27T22:33:54.209Z,102030.92
2018-12-27T22:36:25.411Z,102025.66
2018-12-27T22:38:56.791Z,102029.91
2018-12-27T22:41:28.210Z,102031.62
2018-12-27T22:43:59.571Z,102034.65
2018-12-27T22:46:30.843Z,102037.28
2018-12-27T22:49:02.257Z,102031.62
2018-12-27T22:51:33.553Z,102025.98
2018-12-27T22:54:04.968Z,102029.92
2018-12-27T22:56:36.221Z,102021.72
2018-12-27T22:59:07.777Z,102023.05
2018-12-27T23:01:39.088Z,102019.63
2018-12-27T23:04:10.483Z,102023.48
2018-12-27T23:06:41.858Z,102020.42
2018-12-27T23:09:13.225Z,102020.38
2018-12-27T23:11:44.622Z,102015.25
2018-12-27T23:14:15.932Z,102016.02
2018-12-27T23:16:47.368Z,102015.18
2018-12-27T23:19:18.673Z,102019.87
2018-12-27T23:21:49.916Z,102012.00
2018-12-27T23:24:21.149Z,102006.23
2018-12-27T23:26:52.518Z,102002.33
2018-12-27T23:29:23.802Z,102004.38
2018-12-27T23:31:55.315Z,102005.88
2018-12-27T23:34:26.612Z,102005.38
2018-12-27T23:36:57.984Z,102001.75
2018-12-27T23:39:29.302Z,101992.97
2018-12-27T23:42:00.702Z,101989.78
2018-12-27T23:44:32.175Z,101998.74
2018-12-27T23:47:03.584Z,102004.97
2018-12-27T23:49:35.258Z,102017.05
2018-12-27T23:52:06.813Z,102017.44
2018-12-27T23:54:38.162Z,102022.80
2018-12-27T23:57:09.531Z,102022.84
2018-12-27T23:59:41.129Z,102019.38
